Glasco, Kansas
Current Conditions -  °F | °C
As of 1:55 AM on Saturday 20 Dec 2014 (Local Time) from KCNK Reporting Station
Haze Haze  
Wind Chill: 23°   Ceiling: Unl
Heat Index: 29°   Visibility: 5mi
Dew Point: 29°   Wind: 6mph
Humidity: 100%   Direction: 200°SSW
Pressure: 30.08"   Gusts: NA
Location:  39.36°N, 97.84°W
Report Text: KCNK 200755Z AUTO 20005KT 5SM BR CLR M02/M02 A3008 RMK AO2 SLP200 T10171017 $
Loading
Personal Weather Stations






























Interactive Weather Map New forecast layout! Learn more

10-Day Weather Forecast

Advertisements
Track Severe Weather on mobile